Time;durP1;ratioP1;P1;durP2;ratioP2;P2;SDS_P1;SDS_P2;PMS_P1;PMS_P2;Temp;Humidity;BMP_temperature;BMP_pressure;BME280_temperature;BME280_humidity;BME280_pressure;Samples;Min_cycle;Max_cycle;Signal;HPM_P1;HPM_P2
2021/07/30 00:00:30;;;;;;;11.00;3.15;;;;;;;15.50;79.15;100734.00;6249118;28;20046;-76
2021/07/30 00:03:32;;;;;;;10.05;3.10;;;;;;;15.52;79.13;100728.59;6248619;28;20436;-76
2021/07/30 00:06:34;;;;;;;13.98;3.35;;;;;;;15.40;79.13;100725.91;6249034;28;20045;-76
2021/07/30 00:09:35;;;;;;;10.75;3.13;;;;;;;15.38;79.77;100732.25;6248681;28;20060;-76
2021/07/30 00:12:36;;;;;;;14.68;3.20;;;;;;;15.31;80.18;100728.38;6248433;28;20060;-76
2021/07/30 00:15:38;;;;;;;14.48;3.22;;;;;;;15.32;79.99;100727.44;6248662;28;20041;-76
2021/07/30 00:18:40;;;;;;;9.95;3.75;;;;;;;15.27;81.28;100721.63;6248326;28;20060;-76
2021/07/30 00:21:42;;;;;;;14.35;3.42;;;;;;;15.26;81.40;100726.09;6248551;28;20049;-76
2021/07/30 00:24:43;;;;;;;8.88;3.40;;;;;;;15.23;81.77;100728.94;6248052;28;20053;-76
2021/07/30 00:27:44;;;;;;;7.22;3.28;;;;;;;15.21;82.02;100728.19;6248500;28;20053;-76
2021/07/30 00:30:46;;;;;;;8.15;2.88;;;;;;;15.23;82.34;100723.66;6248207;28;20489;-77
2021/07/30 00:33:48;;;;;;;9.65;3.63;;;;;;;15.20;81.88;100724.69;6248192;28;20049;-76
2021/07/30 00:36:49;;;;;;;8.63;3.35;;;;;;;15.14;82.23;100729.63;6248190;28;20049;-76
2021/07/30 00:39:51;;;;;;;9.07;3.63;;;;;;;15.07;82.69;100723.06;6247834;28;20049;-76
2021/07/30 00:42:53;;;;;;;9.25;3.38;;;;;;;14.98;83.04;100730.69;6247902;28;20504;-76
2021/07/30 00:45:56;;;;;;;8.48;3.10;;;;;;;14.96;83.24;100721.19;6247795;28;20080;-76
2021/07/30 00:48:59;;;;;;;9.02;3.45;;;;;;;15.05;83.04;100730.28;6247834;28;20056;-76
2021/07/30 00:52:01;;;;;;;9.05;3.53;;;;;;;15.08;83.01;100720.31;6247662;28;20052;-76
2021/07/30 00:55:02;;;;;;;10.15;3.53;;;;;;;15.00;83.12;100720.03;6247711;28;20528;-76
2021/07/30 00:58:04;;;;;;;11.00;3.50;;;;;;;14.99;83.56;100721.00;6247658;28;20057;-76
2021/07/30 01:01:05;;;;;;;14.85;4.05;;;;;;;14.95;83.92;100717.72;6247188;28;20049;-76
2021/07/30 01:04:08;;;;;;;12.30;4.05;;;;;;;14.96;84.31;100722.03;6247528;28;20046;-76
2021/07/30 01:07:09;;;;;;;9.10;3.20;;;;;;;14.90;84.29;100722.50;6247403;28;20540;-76
2021/07/30 01:10:11;;;;;;;9.13;3.22;;;;;;;14.85;84.52;100726.41;6247373;28;20053;-76
2021/07/30 01:13:12;;;;;;;11.27;4.18;;;;;;;14.76;84.73;100729.69;6246982;28;20049;-76
2021/07/30 01:16:14;;;;;;;10.77;3.40;;;;;;;14.66;84.91;100722.41;6247373;28;20550;-76
2021/07/30 01:19:22;;;;;;;16.65;4.68;;;;;;;14.61;85.90;100719.25;6247248;28;20049;-77
2021/07/30 01:22:27;;;;;;;14.57;4.47;;;;;;;14.57;86.01;100720.44;6247022;28;20041;-76
2021/07/30 01:25:30;;;;;;;10.57;3.65;;;;;;;14.57;86.25;100722.22;6247135;28;20049;-76
2021/07/30 01:28:32;;;;;;;11.30;3.80;;;;;;;14.52;85.51;100722.56;6246874;28;20417;-76
2021/07/30 01:31:33;;;;;;;14.48;4.90;;;;;;;14.49;86.42;100719.28;6246869;28;20049;-76
2021/07/30 01:34:34;;;;;;;11.10;3.58;;;;;;;14.49;86.22;100720.16;6247088;28;20049;-76
2021/07/30 01:37:36;;;;;;;10.43;3.38;;;;;;;14.47;85.69;100714.91;6246947;28;20061;-76
2021/07/30 01:40:39;;;;;;;9.98;3.15;;;;;;;14.40;85.27;100716.31;6246912;28;20046;-76
2021/07/30 01:43:42;;;;;;;14.55;3.95;;;;;;;14.40;86.29;100724.25;6246703;28;20493;-76
2021/07/30 01:46:45;;;;;;;15.95;3.70;;;;;;;14.37;85.94;100723.59;6246845;28;20045;-76
2021/07/30 01:49:47;;;;;;;22.50;4.20;;;;;;;14.40;86.16;100724.25;6246657;28;20111;-76
2021/07/30 01:52:48;;;;;;;13.00;4.32;;;;;;;14.39;85.94;100726.97;6246665;28;20053;-76
2021/07/30 01:55:51;;;;;;;11.27;4.00;;;;;;;14.42;85.99;100724.13;6246907;28;20405;-76
2021/07/30 01:58:52;;;;;;;9.63;3.45;;;;;;;14.41;86.00;100725.09;6246532;28;20064;-76
2021/07/30 02:01:53;;;;;;;9.73;3.88;;;;;;;14.38;85.87;100722.63;6246622;28;20056;-76
2021/07/30 02:04:54;;;;;;;16.92;4.43;;;;;;;14.37;86.05;100723.59;6246247;28;20582;-76
2021/07/30 02:07:56;;;;;;;11.43;3.63;;;;;;;14.37;85.80;100718.31;6246457;28;20052;-76
2021/07/30 02:10:58;;;;;;;12.43;3.28;;;;;;;14.32;85.87;100713.34;6248508;28;20053;-76
2021/07/30 02:14:18;;;;;;;14.23;3.75;;;;;;;14.26;86.53;100700.56;6251290;28;20049;-76
2021/07/30 02:17:19;;;;;;;11.60;3.75;;;;;;;14.26;86.80;100710.25;6251454;28;20049;-76
2021/07/30 02:20:20;;;;;;;18.75;4.57;;;;;;;14.20;86.41;100708.91;6251480;28;20409;-76
2021/07/30 02:23:22;;;;;;;7.90;3.35;;;;;;;14.19;86.51;100701.94;6251143;28;20049;-76
2021/07/30 02:26:24;;;;;;;10.07;3.30;;;;;;;14.13;86.67;100710.28;6251416;28;20042;-76
2021/07/30 02:29:26;;;;;;;11.00;3.70;;;;;;;14.09;87.52;100709.66;6250984;28;20049;-76
2021/07/30 02:32:27;;;;;;;19.15;4.85;;;;;;;14.10;87.41;100708.69;6251268;28;20064;-76
2021/07/30 02:35:28;;;;;;;11.15;3.75;;;;;;;14.10;88.64;100710.50;6251054;28;20049;-76
2021/07/30 02:38:29;;;;;;;14.23;4.45;;;;;;;14.08;87.62;100707.97;6250813;28;20057;-76
2021/07/30 02:41:32;;;;;;;12.43;4.28;;;;;;;14.06;88.04;100715.13;6250639;28;20053;-76
2021/07/30 02:44:33;;;;;;;13.00;3.90;;;;;;;14.06;88.28;100717.78;6250502;28;20061;-76
2021/07/30 02:47:35;;;;;;;9.93;3.88;;;;;;;14.06;88.39;100719.56;6250774;28;20041;-76
2021/07/30 02:50:36;;;;;;;14.80;4.40;;;;;;;14.03;88.76;100714.50;6250529;28;20053;-76
2021/07/30 02:53:38;;;;;;;11.07;3.85;;;;;;;14.02;88.57;100716.28;6250515;28;20064;-76
2021/07/30 02:56:41;;;;;;;12.25;3.50;;;;;;;14.00;87.90;100715.56;6250988;28;20049;-76
2021/07/30 02:59:42;;;;;;;11.05;3.97;;;;;;;13.96;88.89;100719.38;6250589;28;20517;-76
2021/07/30 03:02:43;;;;;;;16.33;4.30;;;;;;;13.93;88.51;100717.75;6250292;28;20056;-76
2021/07/30 03:05:46;;;;;;;8.65;3.70;;;;;;;13.90;89.02;100715.34;6250508;28;20041;-76
2021/07/30 03:08:47;;;;;;;18.10;4.35;;;;;;;13.88;89.57;100714.59;6250274;28;20045;-76
2021/07/30 03:11:50;;;;;;;10.93;4.20;;;;;;;13.87;89.14;100718.19;6250130;28;20413;-76
2021/07/30 03:14:51;;;;;;;8.48;3.88;;;;;;;13.85;89.97;100717.47;6250156;28;20049;-76
2021/07/30 03:17:53;;;;;;;14.88;4.30;;;;;;;13.84;89.94;100714.91;6249821;28;20538;-76
2021/07/30 03:20:54;;;;;;;8.50;3.30;;;;;;;13.85;88.89;100720.09;6249669;28;20049;-76
2021/07/30 03:23:56;;;;;;;11.43;3.78;;;;;;;13.84;89.61;100710.47;6248807;28;20460;-76
2021/07/30 03:26:59;;;;;;;9.57;4.25;;;;;;;13.83;89.79;100711.41;6249810;28;20041;-76
2021/07/30 03:30:00;;;;;;;9.30;3.70;;;;;;;13.81;90.13;100713.31;6249655;28;20049;-76
2021/07/30 03:33:03;;;;;;;12.25;4.45;;;;;;;13.74;90.32;100700.63;6249753;28;20056;-76
2021/07/30 03:36:05;;;;;;;12.75;4.03;;;;;;;13.73;90.23;100705.06;6249709;28;20051;-76
2021/07/30 03:39:06;;;;;;;12.48;4.55;;;;;;;13.66;90.55;100701.97;6249530;28;20068;-76
2021/07/30 03:42:10;;;;;;;10.55;4.30;;;;;;;13.65;91.19;100707.38;6249380;28;20567;-76
2021/07/30 03:45:11;;;;;;;9.85;3.97;;;;;;;13.64;90.46;100708.31;6249106;28;20057;-76
2021/07/30 03:48:13;;;;;;;8.95;4.00;;;;;;;13.63;90.71;100711.91;6249148;28;20528;-76
2021/07/30 03:51:15;;;;;;;13.52;4.30;;;;;;;13.57;91.22;100705.22;6249198;28;20136;-76
2021/07/30 03:54:17;;;;;;;9.63;3.90;;;;;;;13.53;91.52;100706.38;6261817;28;20055;-76
2021/07/30 03:57:20;;;;;;;15.85;4.57;;;;;;;13.51;92.31;100699.53;6273522;28;20055;-76
2021/07/30 04:00:21;;;;;;;10.52;4.03;;;;;;;13.53;92.00;100700.25;6274080;28;20451;-76
2021/07/30 04:03:22;;;;;;;11.60;4.03;;;;;;;13.49;92.00;100701.41;6273330;28;20049;-77
2021/07/30 04:06:24;;;;;;;9.05;3.90;;;;;;;13.48;92.25;100710.28;6273917;28;20515;-76
2021/07/30 04:09:25;;;;;;;12.07;4.43;;;;;;;13.44;92.76;100701.72;6273579;28;20056;-76
2021/07/30 04:12:28;;;;;;;13.25;4.90;;;;;;;13.47;92.79;100706.78;6273499;28;20049;-76
2021/07/30 04:15:29;;;;;;;9.38;4.03;;;;;;;13.49;92.54;100710.19;6273080;28;20052;-76
2021/07/30 04:18:31;;;;;;;7.90;4.22;;;;;;;13.48;92.90;100705.00;6273140;28;20048;-76
2021/07/30 04:21:32;;;;;;;9.02;4.07;;;;;;;13.48;92.70;100705.00;6273563;28;20061;-75
2021/07/30 04:24:36;;;;;;;10.25;4.97;;;;;;;13.53;92.29;100710.81;6272759;28;20393;-76
2021/07/30 04:27:38;;;;;;;12.55;4.80;;;;;;;13.52;92.71;100703.84;6273058;28;20048;-77
2021/07/30 04:30:40;;;;;;;11.68;5.00;;;;;;;13.55;92.41;100704.50;6272171;28;20064;-75
2021/07/30 04:33:41;;;;;;;10.80;5.20;;;;;;;13.56;92.43;100702.69;6270828;28;20045;-76
2021/07/30 04:36:42;;;;;;;14.63;5.00;;;;;;;13.59;92.89;100707.78;6271147;28;20041;-75
2021/07/30 04:39:44;;;;;;;10.85;5.00;;;;;;;13.64;93.15;100710.97;6271018;28;20068;-75
2021/07/30 04:42:46;;;;;;;7.95;4.18;;;;;;;13.67;92.54;100703.69;6271195;28;20055;-75
2021/07/30 04:45:48;;;;;;;8.77;4.55;;;;;;;13.69;92.46;100706.22;6268433;28;20130;-75
2021/07/30 04:48:49;;;;;;;10.80;4.80;;;;;;;13.69;92.77;100703.56;6271043;28;20048;-76
2021/07/30 04:51:50;;;;;;;13.05;4.90;;;;;;;13.71;93.15;100701.66;6270668;28;20052;-75
2021/07/30 04:54:51;;;;;;;11.30;4.80;;;;;;;13.76;92.63;100704.84;6270679;28;20044;-75
2021/07/30 04:57:54;;;;;;;11.57;4.80;;;;;;;13.85;91.73;100704.25;6270653;28;20041;-75
2021/07/30 05:00:56;;;;;;;14.75;5.60;;;;;;;13.93;91.15;100703.72;6270791;28;20048;-76
2021/07/30 05:03:57;;;;;;;10.95;5.03;;;;;;;13.95;90.66;100707.09;6270425;28;20059;-75
2021/07/30 05:06:59;;;;;;;13.73;5.32;;;;;;;13.98;91.00;100704.25;6267706;28;20440;-75
2021/07/30 05:10:00;;;;;;;12.50;4.93;;;;;;;14.02;90.93;100707.53;6270483;28;20044;-75
2021/07/30 05:13:03;;;;;;;12.90;5.25;;;;;;;14.06;90.88;100701.09;6270493;28;20052;-76
2021/07/30 05:16:08;;;;;;;18.67;5.03;;;;;;;14.11;91.13;100702.44;6270360;28;20045;-75
2021/07/30 05:19:09;;;;;;;13.60;4.80;;;;;;;14.15;90.71;100705.72;6270192;28;20049;-75
2021/07/30 05:22:11;;;;;;;16.52;5.30;;;;;;;14.19;91.35;100705.41;6270154;28;20045;-75
2021/07/30 05:25:13;;;;;;;18.10;5.55;;;;;;;14.21;91.23;100700.00;6270201;28;20045;-75
2021/07/30 05:28:15;;;;;;;9.20;4.78;;;;;;;14.24;91.42;100699.81;6269984;28;20048;-75
2021/07/30 05:31:18;;;;;;;15.60;4.80;;;;;;;14.29;91.17;100704.78;6269769;28;20049;-75
2021/07/30 05:34:19;;;;;;;16.23;4.80;;;;;;;14.34;91.37;100694.72;6270411;28;20158;-75
2021/07/30 05:37:21;;;;;;;10.23;4.75;;;;;;;14.36;90.95;100700.75;6271467;28;20051;-75
2021/07/30 05:40:22;;;;;;;15.07;5.32;;;;;;;14.38;90.80;100697.03;6271358;28;20049;-75
2021/07/30 05:43:25;;;;;;;15.93;5.10;;;;;;;14.38;90.90;100698.84;6270485;28;20053;-76
2021/07/30 05:46:27;;;;;;;9.48;4.80;;;;;;;14.47;90.12;100703.50;6270636;28;20048;-75
2021/07/30 05:49:28;;;;;;;15.18;5.53;;;;;;;14.54;90.12;100706.59;6270669;28;20052;-75
2021/07/30 05:52:30;;;;;;;11.57;4.82;;;;;;;14.65;89.70;100704.03;6271234;28;20489;-75
2021/07/30 05:55:32;;;;;;;12.73;5.57;;;;;;;14.71;89.44;100712.34;6270634;28;20045;-75
2021/07/30 05:58:34;;;;;;;16.38;5.70;;;;;;;14.74;90.17;100713.09;6270767;28;20041;-74
2021/07/30 06:01:36;;;;;;;13.90;5.40;;;;;;;14.73;90.43;100704.31;6270442;28;20442;-75
2021/07/30 06:04:38;;;;;;;16.25;5.40;;;;;;;14.86;89.50;100702.50;6270732;28;20052;-75
2021/07/30 06:07:39;;;;;;;13.55;5.43;;;;;;;14.93;89.69;100711.66;6271344;28;20052;-75
2021/07/30 06:10:40;;;;;;;13.43;5.93;;;;;;;14.96;89.39;100695.56;6271205;28;20072;-75
2021/07/30 06:13:43;;;;;;;20.65;6.38;;;;;;;15.04;88.51;100695.03;6271084;28;20053;-77
2021/07/30 06:16:44;;;;;;;13.88;5.60;;;;;;;15.16;87.84;100701.22;6270913;28;20045;-75
2021/07/30 06:19:46;;;;;;;19.05;5.35;;;;;;;15.27;87.04;100698.63;6271107;28;20049;-75
2021/07/30 06:22:47;;;;;;;21.50;5.63;;;;;;;15.40;86.37;100696.78;6269545;28;20052;-76
2021/07/30 06:25:48;;;;;;;10.60;5.07;;;;;;;15.50;85.40;100702.22;6271050;28;20056;-75
2021/07/30 06:28:51;;;;;;;17.33;5.60;;;;;;;15.59;84.34;100709.47;6271119;28;20056;-75
2021/07/30 06:31:52;;;;;;;18.27;5.38;;;;;;;15.68;84.84;100694.75;6270636;28;20056;-75
2021/07/30 06:34:53;;;;;;;12.80;4.65;;;;;;;15.74;83.53;100702.22;6270865;28;20057;-76
2021/07/30 06:37:55;;;;;;;15.98;5.45;;;;;;;15.76;83.19;100692.34;6270582;28;20044;-75
2021/07/30 06:40:56;;;;;;;12.77;5.05;;;;;;;15.81;81.77;100698.16;6270746;28;20746;-76
2021/07/30 06:43:59;;;;;;;18.05;5.35;;;;;;;15.85;82.42;100694.31;6270412;28;20057;-76
2021/07/30 06:47:00;;;;;;;12.07;4.50;;;;;;;15.91;81.22;100696.47;6270685;28;20049;-76
2021/07/30 06:50:01;;;;;;;13.45;4.68;;;;;;;15.95;80.92;100699.75;6270682;28;20053;-76
2021/07/30 06:53:03;;;;;;;12.73;5.18;;;;;;;15.98;80.27;100697.69;6270499;28;20049;-76
2021/07/30 06:56:09;;;;;;;17.40;5.35;;;;;;;16.03;79.96;100697.31;6270497;28;20041;-75
2021/07/30 06:59:11;;;;;;;13.15;4.32;;;;;;;16.15;78.26;100688.44;6274243;28;20045;-76
2021/07/30 07:02:13;;;;;;;12.85;4.57;;;;;;;16.17;78.90;100694.47;6274975;28;20049;-76
2021/07/30 07:05:16;;;;;;;28.55;4.95;;;;;;;16.31;74.87;100684.59;6275050;28;20049;-76
2021/07/30 07:08:17;;;;;;;15.63;4.40;;;;;;;16.34;75.70;100685.19;6274718;28;20049;-76
2021/07/30 07:11:18;;;;;;;13.15;4.10;;;;;;;16.44;74.24;100683.53;6274641;28;20052;-76
2021/07/30 07:14:21;;;;;;;12.60;4.28;;;;;;;16.50;74.05;100679.53;6274629;28;20520;-76
2021/07/30 07:17:22;;;;;;;13.25;3.50;;;;;;;16.66;71.38;100692.41;6274563;28;20052;-77
2021/07/30 07:20:24;;;;;;;12.07;3.83;;;;;;;16.74;71.63;100679.41;6274937;28;20049;-76
2021/07/30 07:23:25;;;;;;;11.90;3.80;;;;;;;16.77;71.79;100675.69;6274351;28;20052;-78
2021/07/30 07:26:27;;;;;;;12.80;3.67;;;;;;;16.77;69.95;100679.19;6275181;28;20052;-79
2021/07/30 07:29:31;;;;;;;12.27;3.03;;;;;;;16.85;69.84;100678.53;6272847;28;20049;-75
2021/07/30 07:32:33;;;;;;;7.80;3.65;;;;;;;17.04;68.73;100676.09;6273440;28;20485;-76
2021/07/30 07:35:34;;;;;;;11.85;3.47;;;;;;;17.06;69.89;100681.28;6274169;28;20060;-75
2021/07/30 07:38:35;;;;;;;14.30;4.05;;;;;;;17.15;68.10;100675.22;6274164;28;20535;-76
2021/07/30 07:41:37;;;;;;;12.75;3.28;;;;;;;17.21;68.51;100672.03;6274242;28;20053;-75
2021/07/30 07:44:40;;;;;;;18.88;3.25;;;;;;;17.30;68.01;100673.09;6273590;28;20056;-77
2021/07/30 07:47:41;;;;;;;12.15;3.67;;;;;;;17.35;68.22;100676.22;6273833;28;20420;-78
2021/07/30 07:50:42;;;;;;;14.77;2.92;;;;;;;17.52;67.00;100672.16;6274038;28;20056;-77
2021/07/30 07:53:44;;;;;;;11.73;3.10;;;;;;;17.60;66.81;100669.72;6273975;28;20049;-78
2021/07/30 07:56:45;;;;;;;12.55;3.78;;;;;;;17.58;67.46;100671.66;6273921;28;20045;-75
2021/07/30 07:59:48;;;;;;;14.88;3.42;;;;;;;17.64;65.79;100671.13;6273888;28;20049;-78
2021/07/30 08:02:49;;;;;;;10.60;3.10;;;;;;;17.66;65.48;100671.84;6273709;28;20049;-78
2021/07/30 08:05:50;;;;;;;11.07;3.10;;;;;;;17.74;63.19;100678.22;6274873;28;20163;-79
2021/07/30 08:08:52;;;;;;;13.73;3.33;;;;;;;17.86;63.26;100676.34;6273766;28;20060;-77
2021/07/30 08:11:53;;;;;;;11.57;3.00;;;;;;;17.89;62.93;100672.56;6273914;28;20076;-78
2021/07/30 08:14:56;;;;;;;12.88;3.42;;;;;;;17.90;62.70;100671.63;6273459;28;20056;-78
2021/07/30 08:17:57;;;;;;;7.38;2.88;;;;;;;17.92;63.29;100673.16;6273565;28;20082;-78
2021/07/30 08:20:59;;;;;;;6.75;3.03;;;;;;;17.94;63.77;100663.25;6269241;28;20522;-76
2021/07/30 08:24:01;;;;;;;12.93;3.80;;;;;;;17.99;65.74;100662.88;6271577;28;20051;-79
2021/07/30 08:27:05;;;;;;;10.43;3.60;;;;;;;18.04;64.33;100659.81;6271144;28;20067;-76
2021/07/30 08:30:09;;;;;;;9.32;3.67;;;;;;;18.12;64.68;100652.84;6271573;28;20045;-78
2021/07/30 08:33:11;;;;;;;12.25;3.22;;;;;;;18.21;65.14;100660.03;6271975;28;20060;-78
2021/07/30 08:36:12;;;;;;;11.50;3.50;;;;;;;18.27;65.62;100652.50;6271171;28;20049;-78
2021/07/30 08:39:13;;;;;;;10.73;3.15;;;;;;;18.39;64.60;100648.75;6273328;28;20547;-78
2021/07/30 08:42:16;;;;;;;20.38;3.65;;;;;;;18.48;62.99;100654.09;6273829;28;20048;-78
2021/07/30 08:45:19;;;;;;;8.85;2.92;;;;;;;18.50;64.28;100661.97;6273420;28;20051;-78
2021/07/30 08:48:20;;;;;;;10.43;3.22;;;;;;;18.60;63.33;100662.00;6268309;28;20415;-78
2021/07/30 08:51:23;;;;;;;11.05;3.58;;;;;;;18.59;64.13;100644.34;6270314;28;20064;-77
2021/07/30 08:54:24;;;;;;;13.55;3.95;;;;;;;18.64;65.55;100653.59;6259602;28;20141;-79
2021/07/30 08:57:26;;;;;;;10.27;2.95;;;;;;;18.76;65.50;100665.03;6270474;28;20052;-78
2021/07/30 09:00:28;;;;;;;13.02;3.17;;;;;;;18.93;62.53;100650.19;6273050;28;20488;-80
2021/07/30 09:03:36;;;;;;;18.33;3.92;;;;;;;18.96;62.82;100653.41;6272233;28;20053;-78
2021/07/30 09:06:37;;;;;;;14.63;3.47;;;;;;;19.01;62.34;100653.00;6272791;28;20052;-78
2021/07/30 09:09:51;;;;;;;9.13;3.40;;;;;;;19.09;62.23;100650.47;6272591;28;20546;-79
2021/07/30 09:12:52;;;;;;;12.63;3.22;;;;;;;19.15;63.64;100651.75;6272790;28;20049;-78
2021/07/30 09:16:04;;;;;;;11.65;3.53;;;;;;;19.24;62.23;100641.09;6272496;28;20048;-77
2021/07/30 09:19:06;;;;;;;12.50;3.58;;;;;;;19.36;61.50;100639.13;6272449;28;20045;-78
2021/07/30 09:22:09;;;;;;;10.43;3.30;;;;;;;19.44;59.33;100639.28;6263660;28;20052;-80
2021/07/30 09:25:11;;;;;;;10.88;3.42;;;;;;;19.38;60.89;100628.31;6269738;28;20440;-78
2021/07/30 09:28:12;;;;;;;15.68;3.55;;;;;;;19.49;59.77;100629.03;6270818;28;20044;-78
2021/07/30 09:31:15;;;;;;;9.85;3.17;;;;;;;19.56;60.95;100628.44;6271679;28;20060;-78
2021/07/30 09:34:22;;;;;;;13.07;3.00;;;;;;;19.66;60.34;100622.13;6271586;28;20504;-79
2021/07/30 09:37:26;;;;;;;12.40;3.42;;;;;;;19.69;61.27;100619.19;6271995;28;20506;-79
2021/07/30 09:40:27;;;;;;;10.95;3.05;;;;;;;19.75;61.29;100621.25;6315158;22;20052;-79
2021/07/30 09:43:29;;;;;;;24.60;4.13;;;;;;;19.79;60.38;100621.81;6311015;28;20048;-79
2021/07/30 09:46:31;;;;;;;12.35;3.58;;;;;;;19.81;59.44;100613.69;6324796;28;20043;-79
2021/07/30 09:49:45;;;;;;;9.27;2.90;;;;;;;19.93;59.55;100620.53;6313793;28;20044;-79
2021/07/30 09:52:48;;;;;;;9.05;2.90;;;;;;;19.99;60.79;100609.28;6323937;28;20048;-78
2021/07/30 09:55:49;;;;;;;11.25;3.17;;;;;;;19.95;59.26;100598.06;6325736;28;20055;-79
2021/07/30 09:58:56;;;;;;;12.27;2.90;;;;;;;20.00;58.65;100602.97;6326878;28;20042;-79
2021/07/30 10:02:00;;;;;;;11.95;3.22;;;;;;;20.10;58.15;100592.25;6332374;28;20104;-77
2021/07/30 10:05:04;;;;;;;12.32;3.30;;;;;;;20.16;59.42;100584.47;6342575;28;20051;-77
2021/07/30 10:08:07;;;;;;;5.43;2.47;;;;;;;20.30;59.60;100575.13;6344417;28;20044;-78
2021/07/30 10:11:10;;;;;;;10.00;3.28;;;;;;;20.39;57.99;100568.91;6347706;28;20055;-78
2021/07/30 10:14:12;;;;;;;10.65;3.25;;;;;;;20.41;58.05;100564.28;6346967;28;20517;-78
2021/07/30 10:17:17;;;;;;;8.45;2.47;;;;;;;20.57;57.32;100566.28;6346794;28;20055;-79
2021/07/30 10:20:19;;;;;;;11.85;2.40;;;;;;;20.64;56.58;100558.53;6347370;28;20052;-79
2021/07/30 10:23:23;;;;;;;6.32;2.65;;;;;;;20.71;57.08;100562.25;6346342;28;20127;-79
2021/07/30 10:26:28;;;;;;;6.13;2.50;;;;;;;20.64;56.97;100559.38;6348568;28;20043;-79
2021/07/30 10:30:04;;;;;;;9.98;3.60;;;;;;;20.57;56.79;100557.44;6350046;28;20059;-80
2021/07/30 10:33:05;;;;;;;15.55;3.30;;;;;;;20.70;55.35;100541.88;6352728;28;20058;-79
2021/07/30 10:36:09;;;;;;;14.98;3.03;;;;;;;20.86;56.56;100539.38;6354983;28;20058;-79
2021/07/30 10:39:15;;;;;;;15.05;3.55;;;;;;;21.00;56.35;100540.66;6352913;28;20085;-79
2021/07/30 10:42:16;;;;;;;10.75;3.25;;;;;;;21.19;57.03;100540.47;6352831;28;20051;-80
2021/07/30 10:45:19;;;;;;;8.27;2.85;;;;;;;21.43;55.34;100545.19;6353682;28;20044;-79
2021/07/30 10:48:30;;;;;;;8.55;3.67;;;;;;;21.58;55.21;100533.94;6351077;27;20464;-77
2021/07/30 10:51:32;;;;;;;10.85;2.60;;;;;;;21.55;55.37;100528.91;6351350;28;20609;-76
2021/07/30 10:54:48;;;;;;;10.48;3.25;;;;;;;21.46;56.07;100528.00;6351330;28;20047;-79
2021/07/30 10:57:58;;;;;;;10.25;2.80;;;;;;;21.48;56.35;100523.31;6352402;28;20125;-77
2021/07/30 11:01:01;;;;;;;15.25;2.63;;;;;;;21.75;54.77;100530.31;6352351;28;20059;-77
2021/07/30 11:04:03;;;;;;;15.52;3.65;;;;;;;21.91;52.50;100526.91;6354479;28;20502;-77
2021/07/30 11:07:04;;;;;;;7.68;2.22;;;;;;;21.93;52.78;100517.69;6354594;28;20064;-77
2021/07/30 11:10:17;;;;;;;8.48;2.53;;;;;;;22.13;53.35;100523.69;6353507;27;20048;-77
2021/07/30 11:13:19;;;;;;;9.63;2.85;;;;;;;22.40;52.08;100521.75;6350187;28;20054;-77
2021/07/30 11:16:24;;;;;;;10.98;2.45;;;;;;;22.24;52.34;100507.31;6352261;28;20047;-77
2021/07/30 11:19:28;;;;;;;8.75;2.47;;;;;;;22.33;52.20;100516.19;6351696;28;20040;-77
2021/07/30 11:22:29;;;;;;;5.82;2.28;;;;;;;22.17;52.35;100505.47;6350319;28;20074;-77
2021/07/30 11:25:30;;;;;;;12.48;2.83;;;;;;;22.26;52.63;100494.63;6350713;28;20044;-78
2021/07/30 11:28:33;;;;;;;8.77;2.60;;;;;;;22.16;51.30;100530.53;6350529;28;20039;-77
2021/07/30 11:31:50;;;;;;;9.88;2.63;;;;;;;22.12;52.25;100505.09;6350892;28;20055;-77
2021/07/30 11:34:52;;;;;;;7.30;2.58;;;;;;;22.42;51.44;100503.66;6352806;28;20048;-77
2021/07/30 11:37:59;;;;;;;11.85;2.47;;;;;;;22.56;51.35;100494.16;6354732;28;20047;-77
2021/07/30 11:41:07;;;;;;;12.52;2.40;;;;;;;22.87;50.92;100508.56;6358046;28;20137;-75
2021/07/30 11:44:08;;;;;;;9.52;2.67;;;;;;;23.14;49.10;100487.81;6348639;28;20058;-77
2021/07/30 11:47:11;;;;;;;7.85;1.90;;;;;;;23.45;48.52;100490.59;6350474;28;20059;-77
2021/07/30 11:50:14;;;;;;;6.55;2.20;;;;;;;23.59;48.76;100489.06;6349873;27;20055;-77
2021/07/30 11:53:16;;;;;;;12.13;2.15;;;;;;;23.15;49.29;100481.44;6350623;28;20087;-77
2021/07/30 11:56:18;;;;;;;7.32;2.35;;;;;;;23.23;49.78;100481.44;6351023;28;20048;-77
2021/07/30 11:59:20;;;;;;;5.15;1.80;;;;;;;23.45;47.24;100480.72;6349882;28;20043;-77
2021/07/30 12:02:25;;;;;;;11.63;2.70;;;;;;;23.71;46.96;100488.56;6350928;28;20495;-77
2021/07/30 12:05:32;;;;;;;7.40;2.30;;;;;;;24.28;45.90;100469.44;6350555;28;20134;-77
2021/07/30 12:08:37;;;;;;;7.70;2.33;;;;;;;24.74;46.13;100465.94;6349716;28;20092;-77
2021/07/30 12:11:44;;;;;;;7.88;2.10;;;;;;;25.00;44.59;100470.94;6351642;28;20048;-77
2021/07/30 12:14:48;;;;;;;7.03;2.30;;;;;;;25.10;45.37;100465.31;6351513;28;20429;-77
2021/07/30 12:17:58;;;;;;;11.07;2.22;;;;;;;25.19;44.94;100477.69;6350419;28;20566;-77
2021/07/30 12:21:05;;;;;;;7.97;2.28;;;;;;;25.60;42.68;100466.47;6349234;28;20054;-77
2021/07/30 12:24:07;;;;;;;4.13;1.73;;;;;;;25.15;44.03;100460.22;6350215;28;20054;-76
2021/07/30 12:27:19;;;;;;;7.75;2.30;;;;;;;25.36;43.29;100463.03;6350733;27;20054;-76
2021/07/30 12:30:28;;;;;;;10.80;2.03;;;;;;;24.94;44.46;100463.63;6351297;28;20446;-77
2021/07/30 12:33:32;;;;;;;5.47;2.10;;;;;;;25.12;44.37;100466.84;6351732;27;20505;-77
2021/07/30 12:36:34;;;;;;;9.60;2.45;;;;;;;25.51;42.32;100463.03;6348852;28;20074;-77
2021/07/30 12:39:45;;;;;;;5.20;1.80;;;;;;;25.02;42.58;100458.97;6348693;28;20051;-77
2021/07/30 12:42:46;;;;;;;6.60;2.20;;;;;;;25.26;43.20;100454.41;6350323;28;20156;-77
2021/07/30 12:45:49;;;;;;;8.20;2.58;;;;;;;25.46;44.06;100449.31;6349047;28;20048;-77
2021/07/30 12:48:52;;;;;;;6.10;1.60;;;;;;;25.70;41.66;100438.22;6348740;27;20044;-77
2021/07/30 12:51:55;;;;;;;5.22;1.70;;;;;;;25.54;41.31;100435.75;6348486;28;20047;-77
2021/07/30 12:55:05;;;;;;;7.32;1.55;;;;;;;24.93;43.84;100433.19;6346616;28;20050;-77
2021/07/30 12:58:07;;;;;;;5.65;2.20;;;;;;;24.76;44.98;100427.13;6347716;28;20089;-77
2021/07/30 13:01:13;;;;;;;7.63;1.67;;;;;;;25.41;42.89;100433.72;6349157;28;20176;-77
2021/07/30 13:04:15;;;;;;;6.95;1.60;;;;;;;25.13;43.41;100425.47;6347501;28;20051;-77
2021/07/30 13:07:17;;;;;;;8.10;1.60;;;;;;;24.88;43.29;100419.44;6347373;28;20415;-77
2021/07/30 13:10:18;;;;;;;6.18;1.42;;;;;;;24.44;44.31;100414.81;6347289;28;20051;-75
2021/07/30 13:13:26;;;;;;;5.80;2.00;;;;;;;24.39;44.01;100410.97;6346980;28;20117;-76
2021/07/30 13:16:27;;;;;;;10.30;1.67;;;;;;;24.13;45.90;100400.59;6345074;28;20059;-76
2021/07/30 13:19:30;;;;;;;4.35;1.83;;;;;;;24.51;48.05;100404.19;6343503;28;20049;-76
2021/07/30 13:22:31;;;;;;;4.22;1.58;;;;;;;24.99;43.99;100402.88;6345230;28;20070;-77
2021/07/30 13:25:35;;;;;;;6.72;1.92;;;;;;;25.05;44.51;100399.44;6349003;28;20043;-77
2021/07/30 13:28:37;;;;;;;5.63;1.90;;;;;;;25.35;44.48;100404.88;6351352;28;20069;-78
2021/07/30 13:31:38;;;;;;;5.50;1.60;;;;;;;25.73;44.05;100394.78;6351763;28;20050;-79
2021/07/30 13:34:40;;;;;;;4.32;1.30;;;;;;;25.40;43.83;100399.78;6350385;28;20478;-79
2021/07/30 13:37:42;;;;;;;5.63;1.48;;;;;;;25.69;43.17;100388.13;6351611;28;20047;-79
2021/07/30 13:40:44;;;;;;;5.22;1.63;;;;;;;25.52;42.12;100395.56;6352779;28;20050;-77
2021/07/30 13:43:46;;;;;;;7.25;1.70;;;;;;;25.00;43.25;100398.34;6349540;28;20055;-79
2021/07/30 13:46:47;;;;;;;6.45;1.30;;;;;;;24.86;44.51;100391.94;6348342;28;20517;-78
2021/07/30 13:49:50;;;;;;;8.43;2.13;;;;;;;24.47;45.04;100386.75;6355692;28;20050;-77
2021/07/30 13:52:51;;;;;;;6.90;1.20;;;;;;;24.34;45.44;100391.84;6352826;28;20075;-77
2021/07/30 13:55:52;;;;;;;6.53;1.77;;;;;;;24.27;45.69;100381.00;6353529;28;20059;-78
2021/07/30 13:58:54;;;;;;;6.82;2.05;;;;;;;24.09;46.59;100377.78;6355111;28;20054;-78
2021/07/30 14:01:55;;;;;;;9.20;1.90;;;;;;;24.21;47.59;100377.19;6354430;28;20051;-78